TENO2: Tenkiller Lake

Data processed at Sat Jan 12 2019 23:32


All information presented herein is the property of the government of the United States of America and may be revised or deleted at any time without prior notice.
Dissemination of this information without the expressed written consent of the Public Affairs Office, Tulsa District U.S. Army Corps of Engineers is strictly prohibited.
These data are gathered electronically and, as presented, have not undergone any form of quality control. These data are not guaranteed to be valid or correct.
Go to home page.
Go to station list.
Go to home page.

Upstream stations:

Downstream station:
Previous Day
Next Day
Current Day
    
SHEF ID:       TENO2     Tenkiller Lake
STATION TYPE:  Reservoir
Normal Pool:  Bottom =   594.50, Top =   632.00

               PRECIP PRECIP(A) ELEVATION   STORAGE   TW-ELEV    INFLOW   RELEASE  AIR-TEMP  WIND-DIRWIND-SPEED REL-HUMID SOLAR-RAD   VOLTAGE  BAT-LOAD
                   in        in        ft     ac-ft        ft       cfs       cfs         F       deg       mph         %      W/m2      volt      volt
              Ccp-Rev   Ccp-Rev   Ccp-Rev   Ccp-Rev   Ccp-Rev  Regi-Rev  Regi-Rev   Ccp-Rev   Ccp-Rev   Ccp-Rev   Ccp-Rev   Ccp-Rev   Ccp-Rev   Ccp-Rev
(US/Central)
01/12 00:00      0.09      ----    639.32    768116    488.07      3227      4942     37.33     77.80      4.60     54.68      0.00     13.62     12.93
01/12 01:00      0.08      ----    639.33    768258    487.91      3894      4942     37.33     76.70      4.80     55.21      0.00     13.62     12.92
01/12 02:00      0.04      ----    639.31    767974    487.89      4540      4942     37.49     75.00      3.80     59.72      0.00     13.61     12.93
01/12 03:00      0.10      ----    639.32    768116    488.03      3895      4848     37.76     76.00      3.80     57.89      0.00     13.62     12.92
01/12 04:00      0.10      ----    639.32    768116    487.87      3552      4942     38.35     72.40      3.30     60.71      0.00     13.62     12.93
01/12 05:00      0.00      ----    639.29    767691    487.94      3913      4942     38.37     70.80      3.80     52.89      0.00     13.61     12.92
01/12 06:00      0.00      ----    639.29    767691    488.08      3608      4942     38.43     75.00      2.60     54.41      0.00     13.62     12.92
01/12 07:00      0.00      ----    639.28    767549    488.05      3669      5036     38.71     73.90      2.90     55.13      0.00     13.61     12.93
01/12 08:00      0.00      ----    639.28    767549    487.95      3994      5036     38.71     58.40      2.30     58.63      0.00     13.61     12.93
01/12 09:00      0.00      ----    639.28    767549    488.01      3672      5050     38.79     70.90      2.10     64.32      5.20     13.61     12.93
01/12 10:00      0.00      ----    639.26    767266    488.10      3676      5050     39.61     70.10      1.60     59.70     10.80     13.61     12.93
01/12 11:00      0.00      ----    639.25    767124    488.04      3335      5050     39.83     66.20      1.30     58.31      7.70     13.61     12.92
01/12 12:00      0.01      ----    639.24    766982    488.14      3335      5050     40.33    211.00      1.00     60.21     35.40     13.61     12.92
01/12 13:00      0.01      ----    639.23    766841    488.01      3678      5050     41.99    206.70      1.30     59.18     64.10     13.61     12.93
01/12 14:00      0.01      ----    639.23    766841    488.14      3678      5050     40.01    220.30      3.30     57.88     30.00     13.61     12.93
01/12 15:00      0.00      ----    639.22    766699    488.07      4021      5050     37.74    224.40      3.40     56.13     19.30     13.61     12.93
01/12 16:00      0.01      ----    639.21    766557    488.14      4021      5050     36.97    221.10      3.70     62.82      7.00     13.61     12.93
01/12 17:00      0.00      ----    639.21    766557    487.98      4021      5050     37.18    221.50      3.60     48.02      0.00     13.61     12.93
01/12 18:00      0.00      ----    639.20    766415    488.10      4021      5050     36.75    225.90      3.50     53.08      0.00     13.61     12.93
01/12 19:00      0.00      ----    639.20    766415    488.13      3678      5050     36.48    226.10      3.60     52.26      0.00     13.61     12.92
01/12 20:00      0.00      ----    639.19    766274    488.05      4021      5050     35.62    222.40      3.60     53.81      0.00     13.61     12.93
01/12 21:00      0.00      ----    639.17    765990    488.02      3678      5050     35.24    220.20      3.20     48.95      0.00     13.61     12.93
01/12 22:00      0.00      ----    639.18    766132    488.01      5050      5050     35.24    219.90      2.70     48.30      0.00     13.61     12.93
01/12 23:00      0.00      ----    639.16      ----    488.12      -901      -901     34.93    223.30      2.60     49.33      0.00     13.61     12.93